createdAt,value
2024-02-07T00:01:36.214Z,14.75
2024-02-07T00:04:04.888Z,13.75
2024-02-07T00:06:32.149Z,15.95
2024-02-07T00:08:59.015Z,14.88
2024-02-07T00:11:25.858Z,12.68
2024-02-07T00:13:52.781Z,16.63
2024-02-07T00:16:21.130Z,13.07
2024-02-07T00:18:48.026Z,12.88
2024-02-07T00:21:14.948Z,15.40
2024-02-07T00:23:42.266Z,15.70
2024-02-07T00:26:09.097Z,13.77
2024-02-07T00:28:35.908Z,12.80
2024-02-07T00:31:05.614Z,16.20
2024-02-07T00:33:32.459Z,15.00
2024-02-07T00:35:59.484Z,13.10
2024-02-07T00:38:26.298Z,16.75
2024-02-07T00:40:53.261Z,13.95
2024-02-07T00:43:21.325Z,10.68
2024-02-07T00:45:48.779Z,13.20
2024-02-07T00:48:15.803Z,11.95
2024-02-07T00:50:42.650Z,12.20
2024-02-07T00:53:09.528Z,16.75
2024-02-07T00:55:36.379Z,10.98
2024-02-07T00:58:03.569Z,12.75
2024-02-07T01:00:30.403Z,12.55
2024-02-07T01:02:57.209Z,16.45
2024-02-07T01:05:24.134Z,11.55
2024-02-07T01:07:51.201Z,11.35
2024-02-07T01:10:18.140Z,11.63
2024-02-07T01:12:44.995Z,14.10
2024-02-07T01:15:11.914Z,9.75
2024-02-07T01:17:38.828Z,10.88
2024-02-07T01:20:11.094Z,11.48
2024-02-07T01:22:38.779Z,14.07
2024-02-07T01:25:06.767Z,12.27
2024-02-07T01:27:33.589Z,11.52
2024-02-07T01:30:00.468Z,12.82
2024-02-07T01:32:27.303Z,11.95
2024-02-07T01:34:54.189Z,9.90
2024-02-07T01:37:21.508Z,10.70
2024-02-07T01:39:48.357Z,10.27
2024-02-07T01:42:15.207Z,13.60
2024-02-07T01:44:42.114Z,11.75
2024-02-07T01:47:13.796Z,10.00
2024-02-07T01:49:51.429Z,20.08
2024-02-07T01:52:21.115Z,10.43
2024-02-07T01:54:48.280Z,14.10
2024-02-07T01:57:15.631Z,11.93
2024-02-07T01:59:43.300Z,11.60
2024-02-07T02:02:10.828Z,9.98
2024-02-07T02:04:38.780Z,12.93
2024-02-07T02:07:05.756Z,13.15
2024-02-07T02:09:32.635Z,16.88
2024-02-07T02:12:01.887Z,12.98
2024-02-07T02:14:29.974Z,10.73
2024-02-07T02:16:57.010Z,10.00
2024-02-07T02:19:24.313Z,10.10
2024-02-07T02:22:19.385Z,11.23
2024-02-07T02:24:58.769Z,8.52
2024-02-07T02:27:37.713Z,11.20
2024-02-07T02:30:13.497Z,13.65
2024-02-07T02:32:44.185Z,10.95
2024-02-07T02:35:13.918Z,10.05
2024-02-07T02:37:40.923Z,17.02
2024-02-07T02:40:08.838Z,10.55
2024-02-07T02:42:35.801Z,9.13
2024-02-07T02:45:02.725Z,11.48
2024-02-07T02:47:30.271Z,10.98
2024-02-07T02:49:57.294Z,11.85
2024-02-07T02:52:24.293Z,11.88
2024-02-07T02:54:51.280Z,12.35
2024-02-07T02:57:20.896Z,9.50
2024-02-07T02:59:49.768Z,12.65
2024-02-07T03:02:21.466Z,11.60
2024-02-07T03:04:51.313Z,10.50
2024-02-07T03:07:36.535Z,13.60
2024-02-07T03:10:07.052Z,11.40
2024-02-07T03:12:34.041Z,17.98
2024-02-07T03:15:00.856Z,22.48
2024-02-07T03:17:27.804Z,23.70
2024-02-07T03:19:55.397Z,21.42
2024-02-07T03:22:22.294Z,21.85
2024-02-07T03:24:50.217Z,22.15
2024-02-07T03:27:17.103Z,22.73
2024-02-07T03:29:44.359Z,26.02
2024-02-07T03:32:11.331Z,23.88
2024-02-07T03:34:38.328Z,19.13
2024-02-07T03:37:06.368Z,14.10
2024-02-07T03:39:33.433Z,13.27
2024-02-07T03:42:00.422Z,14.90
2024-02-07T03:44:27.337Z,12.77
2024-02-07T03:46:56.157Z,13.38
2024-02-07T03:49:23.113Z,14.68
2024-02-07T03:51:49.973Z,17.30
2024-02-07T03:54:16.837Z,12.95
2024-02-07T03:56:43.685Z,16.58
2024-02-07T03:59:10.462Z,15.48
2024-02-07T04:01:38.017Z,14.98
2024-02-07T04:04:07.198Z,12.23
2024-02-07T04:06:35.263Z,13.30
2024-02-07T04:09:06.909Z,13.60
2024-02-07T04:11:34.089Z,13.38
2024-02-07T04:14:00.903Z,11.73
2024-02-07T04:16:46.580Z,14.02
2024-02-07T04:19:32.141Z,13.60
2024-02-07T04:22:17.573Z,11.63
2024-02-07T04:25:03.072Z,12.80
2024-02-07T04:27:48.340Z,14.70
2024-02-07T04:30:33.548Z,11.40
2024-02-07T04:33:19.087Z,9.98
2024-02-07T04:36:04.842Z,13.35
2024-02-07T04:38:50.501Z,9.98
2024-02-07T04:41:35.776Z,14.55
2024-02-07T04:44:21.083Z,16.42
2024-02-07T04:47:06.425Z,11.88
2024-02-07T04:49:51.920Z,12.63
2024-02-07T04:52:37.359Z,12.98
2024-02-07T04:55:23.347Z,14.38
2024-02-07T04:58:08.792Z,16.38
2024-02-07T05:00:53.766Z,14.13
2024-02-07T05:03:39.140Z,12.25
2024-02-07T05:06:26.095Z,13.90
2024-02-07T05:09:11.296Z,12.90
2024-02-07T05:11:56.796Z,13.43
2024-02-07T05:14:42.058Z,11.88
2024-02-07T05:17:08.870Z,17.45
2024-02-07T05:19:38.569Z,19.40
2024-02-07T05:22:05.499Z,15.15
2024-02-07T05:24:32.808Z,16.88
2024-02-07T05:26:59.678Z,17.25
2024-02-07T05:29:30.745Z,16.38
2024-02-07T05:31:57.740Z,19.38
2024-02-07T05:34:25.806Z,14.65
2024-02-07T05:36:52.751Z,17.52
2024-02-07T05:39:19.636Z,18.45
2024-02-07T05:41:48.009Z,17.40
2024-02-07T05:44:14.811Z,19.17
2024-02-07T05:46:42.407Z,15.45
2024-02-07T05:49:09.315Z,13.55
2024-02-07T05:51:36.675Z,14.73
2024-02-07T05:54:03.521Z,14.55
2024-02-07T05:56:31.988Z,16.10
2024-02-07T05:58:58.933Z,14.90
2024-02-07T06:01:30.776Z,17.80
2024-02-07T06:04:00.073Z,19.88
2024-02-07T06:06:31.552Z,21.88
2024-02-07T06:09:00.464Z,17.92
2024-02-07T06:11:33.397Z,24.17
2024-02-07T06:14:06.038Z,25.38
2024-02-07T06:16:36.101Z,23.58
2024-02-07T06:19:07.876Z,21.08
2024-02-07T06:21:37.389Z,26.92
2024-02-07T06:24:05.001Z,20.42
2024-02-07T06:26:32.961Z,25.40
2024-02-07T06:28:59.962Z,19.48
2024-02-07T06:31:27.633Z,26.60
2024-02-07T06:33:55.040Z,25.02
2024-02-07T06:36:21.965Z,20.48
2024-02-07T06:38:49.310Z,27.20
2024-02-07T06:41:16.426Z,23.90
2024-02-07T06:43:44.764Z,23.92
2024-02-07T06:46:12.384Z,24.65
2024-02-07T06:48:40.993Z,28.00
2024-02-07T06:51:15.552Z,28.45
2024-02-07T06:53:43.074Z,26.13
2024-02-07T06:56:10.148Z,22.67
2024-02-07T06:58:38.128Z,23.58
2024-02-07T07:01:08.056Z,23.38
2024-02-07T07:03:35.591Z,27.33
2024-02-07T07:06:03.663Z,25.63
2024-02-07T07:08:30.660Z,24.20
2024-02-07T07:10:57.615Z,19.70
2024-02-07T07:13:48.952Z,21.75
2024-02-07T07:16:16.288Z,25.52
2024-02-07T07:18:44.576Z,27.55
2024-02-07T07:21:12.011Z,26.08
2024-02-07T07:23:39.502Z,21.58
2024-02-07T07:26:06.782Z,22.10
2024-02-07T07:28:34.398Z,26.67
2024-02-07T07:31:04.188Z,22.52
2024-02-07T07:33:31.063Z,23.63
2024-02-07T07:35:58.152Z,22.48
2024-02-07T07:38:24.980Z,21.75
2024-02-07T07:40:52.657Z,17.30
2024-02-07T07:43:19.923Z,24.05
2024-02-07T07:45:47.299Z,20.88
2024-02-07T07:48:14.208Z,26.15
2024-02-07T07:50:41.391Z,17.77
2024-02-07T07:53:08.232Z,21.25
2024-02-07T07:55:35.131Z,22.83
2024-02-07T07:58:02.086Z,24.27
2024-02-07T08:00:29.108Z,27.38
2024-02-07T08:02:55.924Z,21.73
2024-02-07T08:05:23.074Z,20.13
2024-02-07T08:07:49.948Z,23.13
2024-02-07T08:10:17.278Z,24.40
2024-02-07T08:12:46.389Z,24.92
2024-02-07T08:15:13.380Z,24.10
2024-02-07T08:17:40.031Z,21.02
2024-02-07T08:20:07.433Z,27.23
2024-02-07T08:22:34.848Z,24.55
2024-02-07T08:25:03.136Z,27.00
2024-02-07T08:27:29.887Z,24.75
2024-02-07T08:29:57.149Z,25.27
2024-02-07T08:32:24.319Z,21.98
2024-02-07T08:34:51.432Z,28.13
2024-02-07T08:37:21.887Z,43.92
2024-02-07T08:39:50.051Z,28.60
2024-02-07T08:42:17.098Z,32.08
2024-02-07T08:44:44.256Z,31.77
2024-02-07T08:47:13.499Z,24.83
2024-02-07T08:49:42.146Z,38.28
2024-02-07T08:52:09.046Z,29.65
2024-02-07T08:54:36.854Z,23.75
2024-02-07T08:57:04.935Z,35.85
2024-02-07T08:59:33.283Z,31.23
2024-02-07T09:02:00.222Z,29.92
2024-02-07T09:04:27.273Z,27.48
2024-02-07T09:06:54.134Z,30.35
2024-02-07T09:09:20.930Z,28.85
2024-02-07T09:11:47.696Z,27.98
2024-02-07T09:14:15.270Z,30.15
2024-02-07T09:16:42.072Z,22.85
2024-02-07T09:19:09.168Z,15.23
2024-02-07T09:21:36.228Z,18.13
2024-02-07T09:24:06.002Z,23.40
2024-02-07T09:26:32.778Z,22.30
2024-02-07T09:29:01.031Z,22.83
2024-02-07T09:31:28.138Z,18.08
2024-02-07T09:33:56.066Z,17.65
2024-02-07T09:36:25.708Z,13.80
2024-02-07T09:38:52.898Z,20.15
2024-02-07T09:41:20.748Z,13.20
2024-02-07T09:43:49.129Z,13.65
2024-02-07T09:46:22.841Z,15.75
2024-02-07T09:48:51.410Z,17.77
2024-02-07T09:51:19.966Z,13.02
2024-02-07T09:53:48.221Z,14.18
2024-02-07T09:56:16.661Z,10.38
2024-02-07T09:58:44.212Z,14.45
2024-02-07T10:01:14.507Z,14.80
2024-02-07T10:03:44.304Z,13.13
2024-02-07T10:06:14.583Z,12.57
2024-02-07T10:08:48.097Z,11.07
2024-02-07T10:11:15.418Z,6.95
2024-02-07T10:13:42.365Z,8.52
2024-02-07T10:16:10.491Z,10.55
2024-02-07T10:18:37.503Z,9.82
2024-02-07T10:21:05.654Z,10.23
2024-02-07T10:23:33.138Z,9.63
2024-02-07T10:26:02.236Z,7.82
2024-02-07T10:28:31.734Z,7.97
2024-02-07T10:31:05.512Z,7.72
2024-02-07T10:33:45.618Z,9.00
2024-02-07T10:36:16.539Z,6.20
2024-02-07T10:38:43.404Z,6.88
2024-02-07T10:41:11.741Z,6.90
2024-02-07T10:43:42.111Z,9.18
2024-02-07T10:46:18.417Z,7.70
2024-02-07T10:48:46.150Z,11.60
2024-02-07T10:51:13.349Z,10.60
2024-02-07T10:53:40.867Z,7.13
2024-02-07T10:56:12.888Z,7.28
2024-02-07T10:58:40.981Z,8.07
2024-02-07T11:01:08.990Z,9.95
2024-02-07T11:03:37.219Z,12.82
2024-02-07T11:06:05.414Z,9.60
2024-02-07T11:08:32.834Z,9.77
2024-02-07T11:11:01.632Z,10.32
2024-02-07T11:13:29.519Z,14.15
2024-02-07T11:15:58.238Z,12.60
2024-02-07T11:18:26.888Z,10.10
2024-02-07T11:20:56.510Z,15.48
2024-02-07T11:23:29.325Z,12.13
2024-02-07T11:25:56.487Z,11.45
2024-02-07T11:28:24.630Z,8.55
2024-02-07T11:30:55.957Z,13.48
2024-02-07T11:33:24.879Z,8.45
2024-02-07T11:35:53.171Z,8.95
2024-02-07T11:38:23.750Z,8.52
2024-02-07T11:40:50.687Z,11.15
2024-02-07T11:43:22.226Z,9.13
2024-02-07T11:45:52.434Z,9.90
2024-02-07T11:48:26.846Z,8.38
2024-02-07T11:50:54.475Z,8.50
2024-02-07T11:53:28.022Z,6.97
2024-02-07T11:55:55.169Z,7.63
2024-02-07T11:58:24.500Z,8.15
2024-02-07T12:00:51.981Z,9.80
2024-02-07T12:03:19.889Z,8.65
2024-02-07T12:05:48.549Z,9.48
2024-02-07T12:08:17.542Z,9.38
2024-02-07T12:10:44.513Z,11.02
2024-02-07T12:13:16.430Z,10.57
2024-02-07T12:15:44.614Z,8.57
2024-02-07T12:18:11.978Z,15.20
2024-02-07T12:20:39.789Z,11.88
2024-02-07T12:23:07.766Z,9.38
2024-02-07T12:25:34.969Z,9.57
2024-02-07T12:28:14.693Z,11.20
2024-02-07T12:30:41.571Z,9.55
2024-02-07T12:33:11.770Z,12.02
2024-02-07T12:35:49.331Z,9.50
2024-02-07T12:38:17.754Z,9.48
2024-02-07T12:40:52.137Z,8.70
2024-02-07T12:43:25.839Z,9.57
2024-02-07T12:46:02.704Z,12.55
2024-02-07T12:48:30.349Z,8.77
2024-02-07T12:50:59.685Z,11.80
2024-02-07T12:53:28.307Z,9.15
2024-02-07T12:55:55.685Z,12.52
2024-02-07T12:58:25.558Z,10.77
2024-02-07T13:01:03.085Z,11.38
2024-02-07T13:03:34.186Z,10.75
2024-02-07T13:06:01.345Z,11.20
2024-02-07T13:08:28.288Z,11.05
2024-02-07T13:10:55.258Z,7.75
2024-02-07T13:13:23.903Z,7.95
2024-02-07T13:16:15.321Z,9.70
2024-02-07T13:18:44.324Z,7.13
2024-02-07T13:21:11.774Z,7.72
2024-02-07T13:23:40.289Z,8.98
2024-02-07T13:26:09.812Z,8.00
2024-02-07T13:28:38.035Z,11.02
2024-02-07T13:31:05.736Z,8.32
2024-02-07T13:33:32.658Z,8.45
2024-02-07T13:35:59.734Z,8.13
2024-02-07T13:38:33.810Z,7.03
2024-02-07T13:41:04.482Z,10.40
2024-02-07T13:43:31.484Z,7.90
2024-02-07T13:45:59.222Z,7.78
2024-02-07T13:48:30.026Z,8.30
2024-02-07T13:51:00.647Z,7.97
2024-02-07T13:53:27.996Z,8.45
2024-02-07T13:55:55.376Z,9.10
2024-02-07T13:58:22.293Z,8.82
2024-02-07T14:00:51.428Z,8.30
2024-02-07T14:03:18.375Z,9.48
2024-02-07T14:05:45.221Z,9.05
2024-02-07T14:08:14.566Z,6.25
2024-02-07T14:10:42.007Z,9.68
2024-02-07T14:13:10.026Z,7.63
2024-02-07T14:15:38.263Z,10.10
2024-02-07T14:18:05.243Z,10.88
2024-02-07T14:20:32.095Z,9.82
2024-02-07T14:22:59.101Z,6.93
2024-02-07T14:25:26.045Z,7.78
2024-02-07T14:27:52.906Z,7.30
2024-02-07T14:30:23.756Z,8.85
2024-02-07T14:32:53.816Z,5.47
2024-02-07T14:35:20.748Z,7.07
2024-02-07T14:37:47.916Z,12.40
2024-02-07T14:40:15.987Z,8.35
2024-02-07T14:42:42.911Z,9.57
2024-02-07T14:45:12.740Z,7.90
2024-02-07T14:47:40.087Z,8.65
2024-02-07T14:50:07.266Z,8.85
2024-02-07T14:52:34.209Z,12.18
2024-02-07T14:55:01.494Z,10.15
2024-02-07T14:57:28.386Z,8.25
2024-02-07T14:59:55.205Z,7.97
2024-02-07T15:02:22.062Z,11.10
2024-02-07T15:04:49.071Z,7.72
2024-02-07T15:07:16.094Z,8.65
2024-02-07T15:09:44.374Z,9.65
2024-02-07T15:12:12.350Z,8.25
2024-02-07T15:14:39.151Z,9.05
2024-02-07T15:17:06.027Z,7.47
2024-02-07T15:19:33.028Z,9.80
2024-02-07T15:21:59.955Z,9.93
2024-02-07T15:24:26.791Z,9.60
2024-02-07T15:26:53.658Z,10.23
2024-02-07T15:29:21.160Z,11.77
2024-02-07T15:31:48.037Z,13.18
2024-02-07T15:34:15.069Z,10.00
2024-02-07T15:36:42.002Z,10.88
2024-02-07T15:39:08.905Z,12.75
2024-02-07T15:41:35.973Z,13.05
2024-02-07T15:44:03.596Z,15.68
2024-02-07T15:46:30.510Z,12.20
2024-02-07T15:49:06.812Z,11.73
2024-02-07T15:51:36.423Z,11.93
2024-02-07T15:54:03.457Z,10.35
2024-02-07T15:56:32.080Z,11.48
2024-02-07T15:58:59.296Z,14.10
2024-02-07T16:01:36.519Z,18.08
2024-02-07T16:04:08.651Z,13.82
2024-02-07T16:06:38.649Z,15.48
2024-02-07T16:09:05.572Z,9.98
2024-02-07T16:11:32.359Z,14.15
2024-02-07T16:13:59.212Z,12.75
2024-02-07T16:16:26.228Z,14.02
2024-02-07T16:18:53.029Z,14.27
2024-02-07T16:21:19.937Z,13.70
2024-02-07T16:23:46.766Z,13.15
2024-02-07T16:26:13.621Z,16.02
2024-02-07T16:28:40.469Z,25.15
2024-02-07T16:31:08.419Z,21.75
2024-02-07T16:33:35.308Z,21.45
2024-02-07T16:36:02.195Z,25.23
2024-02-07T16:38:29.168Z,53.33
2024-02-07T16:40:56.058Z,40.30
2024-02-07T16:43:22.902Z,38.78
2024-02-07T16:45:49.739Z,33.78
2024-02-07T16:48:16.803Z,32.95
2024-02-07T16:50:43.725Z,26.42
2024-02-07T16:53:10.700Z,17.55
2024-02-07T16:55:37.659Z,19.70
2024-02-07T16:58:06.353Z,21.55
2024-02-07T17:00:33.520Z,16.33
2024-02-07T17:03:00.388Z,16.05
2024-02-07T17:05:27.332Z,19.23
2024-02-07T17:07:57.089Z,19.90
2024-02-07T17:10:24.102Z,17.42
2024-02-07T17:12:50.914Z,18.10
2024-02-07T17:15:23.943Z,14.00
2024-02-07T17:17:50.839Z,18.15
2024-02-07T17:20:19.045Z,15.77
2024-02-07T17:22:46.028Z,19.80
2024-02-07T17:25:13.720Z,17.83
2024-02-07T17:27:41.865Z,18.25
2024-02-07T17:30:14.705Z,20.45
2024-02-07T17:32:48.802Z,20.17
2024-02-07T17:35:40.317Z,21.17
2024-02-07T17:38:07.176Z,21.40
2024-02-07T17:40:34.051Z,18.40
2024-02-07T17:43:00.942Z,24.38
2024-02-07T17:45:27.950Z,24.05
2024-02-07T17:47:55.110Z,22.95
2024-02-07T17:50:46.646Z,19.05
2024-02-07T17:53:13.726Z,23.45
2024-02-07T17:55:43.069Z,24.27
2024-02-07T17:58:11.154Z,20.52
2024-02-07T18:00:38.008Z,19.90
2024-02-07T18:03:05.152Z,22.80
2024-02-07T18:05:34.347Z,21.63
2024-02-07T18:08:01.449Z,24.30
2024-02-07T18:10:32.922Z,23.52
2024-02-07T18:13:00.254Z,24.17
2024-02-07T18:15:27.139Z,27.25
2024-02-07T18:17:54.069Z,30.60
2024-02-07T18:20:20.997Z,32.72
2024-02-07T18:22:47.889Z,31.50
2024-02-07T18:25:14.800Z,22.35
2024-02-07T18:27:41.587Z,27.50
2024-02-07T18:30:10.062Z,28.58
2024-02-07T18:32:37.817Z,27.83
2024-02-07T18:35:05.129Z,33.28
2024-02-07T18:37:32.030Z,25.38
2024-02-07T18:39:59.088Z,23.95
2024-02-07T18:42:25.939Z,23.48
2024-02-07T18:44:52.755Z,25.67
2024-02-07T18:47:19.703Z,21.77
2024-02-07T18:49:46.934Z,25.25
2024-02-07T18:52:13.810Z,24.10
2024-02-07T18:54:40.617Z,24.33
2024-02-07T18:57:07.467Z,26.33
2024-02-07T18:59:34.257Z,22.88
2024-02-07T19:02:01.133Z,25.27
2024-02-07T19:04:30.086Z,26.77
2024-02-07T19:06:57.205Z,26.55
2024-02-07T19:09:25.022Z,25.88
2024-02-07T19:11:57.004Z,25.95
2024-02-07T19:14:25.846Z,24.52
2024-02-07T19:16:53.746Z,23.80
2024-02-07T19:19:22.305Z,22.05
2024-02-07T19:21:49.277Z,20.80
2024-02-07T19:24:20.662Z,26.95
2024-02-07T19:26:51.573Z,25.58
2024-02-07T19:29:18.581Z,20.23
2024-02-07T19:31:45.497Z,20.90
2024-02-07T19:34:12.611Z,24.05
2024-02-07T19:36:39.494Z,26.38
2024-02-07T19:39:06.409Z,24.02
2024-02-07T19:41:33.335Z,16.92
2024-02-07T19:44:00.321Z,24.98
2024-02-07T19:46:28.329Z,25.73
2024-02-07T19:48:55.427Z,23.17
2024-02-07T19:51:22.397Z,20.30
2024-02-07T19:53:49.268Z,17.73
2024-02-07T19:56:16.877Z,19.85
2024-02-07T19:58:43.847Z,20.58
2024-02-07T20:01:10.900Z,21.65
2024-02-07T20:03:37.885Z,19.48
2024-02-07T20:06:05.071Z,22.45
2024-02-07T20:08:32.026Z,19.42
2024-02-07T20:10:59.034Z,26.25
2024-02-07T20:13:25.994Z,22.75
2024-02-07T20:15:52.893Z,21.15
2024-02-07T20:18:19.822Z,22.42
2024-02-07T20:20:47.904Z,19.08
2024-02-07T20:23:23.396Z,17.85
2024-02-07T20:26:03.772Z,20.85
2024-02-07T20:28:33.106Z,18.98
2024-02-07T20:31:00.068Z,23.77
2024-02-07T20:33:26.968Z,20.60
2024-02-07T20:35:53.864Z,22.95
2024-02-07T20:38:20.697Z,19.83
2024-02-07T20:40:47.564Z,25.80
2024-02-07T20:43:14.394Z,21.48
2024-02-07T20:45:41.247Z,24.08
2024-02-07T20:48:08.707Z,21.92
2024-02-07T20:50:35.991Z,21.50
2024-02-07T20:53:04.326Z,26.33
2024-02-07T20:55:31.386Z,22.20
2024-02-07T20:57:58.311Z,24.90
2024-02-07T21:00:26.439Z,25.13
2024-02-07T21:02:56.063Z,28.48
2024-02-07T21:05:23.000Z,24.50
2024-02-07T21:07:50.769Z,21.35
2024-02-07T21:10:17.686Z,26.35
2024-02-07T21:12:44.655Z,28.27
2024-02-07T21:15:11.505Z,25.70
2024-02-07T21:17:41.183Z,27.15
2024-02-07T21:20:10.135Z,24.08
2024-02-07T21:22:37.259Z,24.10
2024-02-07T21:25:04.644Z,27.88
2024-02-07T21:27:31.539Z,26.27
2024-02-07T21:29:58.395Z,29.63
2024-02-07T21:32:25.468Z,26.85
2024-02-07T21:34:52.416Z,25.10
2024-02-07T21:37:19.391Z,23.45
2024-02-07T21:39:46.330Z,25.90
2024-02-07T21:42:13.187Z,24.08
2024-02-07T21:44:40.080Z,24.67
2024-02-07T21:47:07.084Z,25.02
2024-02-07T21:49:34.247Z,25.70
2024-02-07T21:52:01.105Z,27.33
2024-02-07T21:54:27.928Z,28.25
2024-02-07T21:56:55.010Z,28.52
2024-02-07T21:59:21.808Z,26.77
2024-02-07T22:01:48.703Z,27.42
2024-02-07T22:04:15.690Z,26.30
2024-02-07T22:06:43.855Z,27.38
2024-02-07T22:09:10.719Z,30.63
2024-02-07T22:11:37.604Z,25.10
2024-02-07T22:14:04.702Z,30.77
2024-02-07T22:16:32.461Z,31.20
2024-02-07T22:18:59.517Z,34.20
2024-02-07T22:21:26.421Z,28.10
2024-02-07T22:23:53.382Z,27.80
2024-02-07T22:26:20.248Z,28.15
2024-02-07T22:28:49.032Z,26.92
2024-02-07T22:31:23.120Z,30.35
2024-02-07T22:33:51.129Z,27.33
2024-02-07T22:36:20.546Z,28.30
2024-02-07T22:38:47.497Z,30.67
2024-02-07T22:41:14.772Z,28.30
2024-02-07T22:43:41.690Z,27.92
2024-02-07T22:46:11.641Z,27.40
2024-02-07T22:48:39.150Z,28.25
2024-02-07T22:51:09.774Z,30.85
2024-02-07T22:53:37.514Z,29.30
2024-02-07T22:56:04.693Z,31.65
2024-02-07T22:58:31.577Z,26.98
2024-02-07T23:00:58.516Z,32.13
2024-02-07T23:03:25.370Z,30.83
2024-02-07T23:05:52.510Z,26.85
2024-02-07T23:08:19.882Z,30.92
2024-02-07T23:10:46.826Z,29.65
2024-02-07T23:13:13.834Z,28.67
2024-02-07T23:15:41.185Z,35.10
2024-02-07T23:18:08.628Z,35.35
2024-02-07T23:20:37.058Z,24.92
2024-02-07T23:23:04.082Z,26.77
2024-02-07T23:25:32.074Z,24.00
2024-02-07T23:27:59.151Z,26.23
2024-02-07T23:30:26.017Z,27.58
2024-02-07T23:32:53.664Z,24.83
2024-02-07T23:35:20.583Z,28.90
2024-02-07T23:37:47.469Z,28.50
2024-02-07T23:40:14.552Z,27.23
2024-02-07T23:42:41.424Z,27.20
2024-02-07T23:45:10.034Z,29.80
2024-02-07T23:47:38.434Z,27.08
2024-02-07T23:50:06.937Z,26.10
2024-02-07T23:52:35.742Z,21.08
2024-02-07T23:55:03.735Z,28.05
2024-02-07T23:57:30.674Z,26.10
2024-02-07T23:59:57.546Z,28.58
